sensor_id;sensor_type;location;lat;lon;timestamp;P1;durP1;ratioP1;P2;durP2;ratioP2
20861;SDS011;10591;52.532;13.348;2022-09-19T00:00:05;4.00;;;1.73;;
20861;SDS011;10591;52.532;13.348;2022-09-19T00:02:36;4.07;;;2.10;;
20861;SDS011;10591;52.532;13.348;2022-09-19T00:05:07;4.03;;;2.53;;
20861;SDS011;10591;52.532;13.348;2022-09-19T00:07:38;2.87;;;1.90;;
20861;SDS011;10591;52.532;13.348;2022-09-19T00:10:11;5.07;;;1.93;;
20861;SDS011;10591;52.532;13.348;2022-09-19T00:12:40;3.10;;;1.70;;
20861;SDS011;10591;52.532;13.348;2022-09-19T00:15:11;4.47;;;2.10;;
20861;SDS011;10591;52.532;13.348;2022-09-19T00:17:41;3.77;;;2.00;;
20861;SDS011;10591;52.532;13.348;2022-09-19T00:20:12;3.57;;;1.80;;
20861;SDS011;10591;52.532;13.348;2022-09-19T00:22:42;5.70;;;2.30;;
20861;SDS011;10591;52.532;13.348;2022-09-19T00:25:14;3.63;;;1.93;;
20861;SDS011;10591;52.532;13.348;2022-09-19T00:27:46;3.15;;;1.70;;
20861;SDS011;10591;52.532;13.348;2022-09-19T00:30:18;5.50;;;2.03;;
20861;SDS011;10591;52.532;13.348;2022-09-19T00:32:48;4.53;;;1.90;;
20861;SDS011;10591;52.532;13.348;2022-09-19T00:35:20;4.33;;;2.10;;
20861;SDS011;10591;52.532;13.348;2022-09-19T00:37:52;2.07;;;1.80;;
20861;SDS011;10591;52.532;13.348;2022-09-19T00:40:22;5.13;;;2.27;;
20861;SDS011;10591;52.532;13.348;2022-09-19T00:42:52;4.12;;;2.40;;
20861;SDS011;10591;52.532;13.348;2022-09-19T00:45:23;4.70;;;2.00;;
20861;SDS011;10591;52.532;13.348;2022-09-19T00:47:54;5.37;;;2.10;;
20861;SDS011;10591;52.532;13.348;2022-09-19T00:50:25;5.20;;;2.25;;
20861;SDS011;10591;52.532;13.348;2022-09-19T00:52:59;2.97;;;2.10;;
20861;SDS011;10591;52.532;13.348;2022-09-19T00:55:34;3.23;;;2.40;;
20861;SDS011;10591;52.532;13.348;2022-09-19T00:58:26;3.90;;;2.57;;
20861;SDS011;10591;52.532;13.348;2022-09-19T01:00:57;4.08;;;2.62;;
20861;SDS011;10591;52.532;13.348;2022-09-19T01:03:28;4.03;;;3.00;;
20861;SDS011;10591;52.532;13.348;2022-09-19T01:14:54;6.17;;;3.70;;
20861;SDS011;10591;52.532;13.348;2022-09-19T01:17:13;4.30;;;2.80;;
20861;SDS011;10591;52.532;13.348;2022-09-19T01:25:21;4.57;;;2.80;;
20861;SDS011;10591;52.532;13.348;2022-09-19T01:28:04;5.43;;;3.00;;
20861;SDS011;10591;52.532;13.348;2022-09-19T01:30:59;4.97;;;2.80;;
20861;SDS011;10591;52.532;13.348;2022-09-19T01:33:59;8.03;;;3.03;;
20861;SDS011;10591;52.532;13.348;2022-09-19T01:39:32;5.87;;;2.63;;
20861;SDS011;10591;52.532;13.348;2022-09-19T01:42:05;4.10;;;2.70;;
20861;SDS011;10591;52.532;13.348;2022-09-19T01:44:35;6.23;;;3.07;;
20861;SDS011;10591;52.532;13.348;2022-09-19T01:47:13;6.28;;;3.33;;
20861;SDS011;10591;52.532;13.348;2022-09-19T01:49:53;6.72;;;3.15;;
20861;SDS011;10591;52.532;13.348;2022-09-19T02:01:31;8.43;;;3.47;;
20861;SDS011;10591;52.532;13.348;2022-09-19T02:04:06;5.17;;;3.30;;
20861;SDS011;10591;52.532;13.348;2022-09-19T02:06:57;6.43;;;3.50;;
20861;SDS011;10591;52.532;13.348;2022-09-19T02:12:05;4.10;;;3.50;;
20861;SDS011;10591;52.532;13.348;2022-09-19T02:14:38;5.17;;;3.60;;
20861;SDS011;10591;52.532;13.348;2022-09-19T02:17:12;6.57;;;3.90;;
20861;SDS011;10591;52.532;13.348;2022-09-19T02:19:54;5.57;;;4.07;;
20861;SDS011;10591;52.532;13.348;2022-09-19T02:22:30;8.40;;;4.07;;
20861;SDS011;10591;52.532;13.348;2022-09-19T02:25:04;5.23;;;3.90;;
20861;SDS011;10591;52.532;13.348;2022-09-19T02:27:43;4.40;;;3.83;;
20861;SDS011;10591;52.532;13.348;2022-09-19T02:30:10;4.27;;;3.83;;
20861;SDS011;10591;52.532;13.348;2022-09-19T02:32:41;7.40;;;4.17;;
20861;SDS011;10591;52.532;13.348;2022-09-19T02:35:14;4.83;;;3.85;;
20861;SDS011;10591;52.532;13.348;2022-09-19T02:37:54;9.60;;;4.10;;
20861;SDS011;10591;52.532;13.348;2022-09-19T02:40:30;5.00;;;3.60;;
20861;SDS011;10591;52.532;13.348;2022-09-19T02:43:09;5.92;;;3.98;;
20861;SDS011;10591;52.532;13.348;2022-09-19T02:45:38;7.77;;;4.30;;
20861;SDS011;10591;52.532;13.348;2022-09-19T02:48:17;5.83;;;4.20;;
20861;SDS011;10591;52.532;13.348;2022-09-19T02:51:12;5.60;;;3.63;;
20861;SDS011;10591;52.532;13.348;2022-09-19T02:53:44;7.23;;;4.00;;
20861;SDS011;10591;52.532;13.348;2022-09-19T02:56:17;6.97;;;3.80;;
20861;SDS011;10591;52.532;13.348;2022-09-19T02:58:52;7.00;;;4.17;;
20861;SDS011;10591;52.532;13.348;2022-09-19T03:01:25;6.53;;;4.07;;
20861;SDS011;10591;52.532;13.348;2022-09-19T03:04:03;8.18;;;4.37;;
20861;SDS011;10591;52.532;13.348;2022-09-19T03:09:28;6.60;;;4.87;;
20861;SDS011;10591;52.532;13.348;2022-09-19T03:12:09;7.27;;;4.23;;
20861;SDS011;10591;52.532;13.348;2022-09-19T03:14:37;6.83;;;4.70;;
20861;SDS011;10591;52.532;13.348;2022-09-19T03:17:08;6.33;;;4.50;;
20861;SDS011;10591;52.532;13.348;2022-09-19T03:19:45;6.27;;;4.60;;
20861;SDS011;10591;52.532;13.348;2022-09-19T03:22:17;8.40;;;5.15;;
20861;SDS011;10591;52.532;13.348;2022-09-19T03:24:47;8.97;;;5.37;;
20861;SDS011;10591;52.532;13.348;2022-09-19T03:27:17;7.83;;;4.92;;
20861;SDS011;10591;52.532;13.348;2022-09-19T03:29:48;8.23;;;5.55;;
20861;SDS011;10591;52.532;13.348;2022-09-19T03:32:18;7.43;;;5.30;;
20861;SDS011;10591;52.532;13.348;2022-09-19T03:34:50;7.93;;;5.17;;
20861;SDS011;10591;52.532;13.348;2022-09-19T03:37:22;11.57;;;8.03;;
20861;SDS011;10591;52.532;13.348;2022-09-19T03:39:54;7.07;;;5.57;;
20861;SDS011;10591;52.532;13.348;2022-09-19T03:42:25;9.48;;;6.03;;
20861;SDS011;10591;52.532;13.348;2022-09-19T03:44:56;10.03;;;6.00;;
20861;SDS011;10591;52.532;13.348;2022-09-19T03:47:27;8.30;;;5.40;;
20861;SDS011;10591;52.532;13.348;2022-09-19T03:49:57;12.87;;;6.73;;
20861;SDS011;10591;52.532;13.348;2022-09-19T03:52:28;11.12;;;6.45;;
20861;SDS011;10591;52.532;13.348;2022-09-19T03:54:58;9.13;;;6.40;;
20861;SDS011;10591;52.532;13.348;2022-09-19T03:57:29;11.97;;;6.05;;
20861;SDS011;10591;52.532;13.348;2022-09-19T03:59:59;11.93;;;6.27;;
20861;SDS011;10591;52.532;13.348;2022-09-19T04:02:30;8.93;;;6.25;;
20861;SDS011;10591;52.532;13.348;2022-09-19T04:05:00;9.47;;;6.60;;
20861;SDS011;10591;52.532;13.348;2022-09-19T04:07:31;10.70;;;6.23;;
20861;SDS011;10591;52.532;13.348;2022-09-19T04:10:01;8.20;;;6.20;;
20861;SDS011;10591;52.532;13.348;2022-09-19T04:12:32;9.73;;;5.65;;
20861;SDS011;10591;52.532;13.348;2022-09-19T04:15:02;7.50;;;6.10;;
20861;SDS011;10591;52.532;13.348;2022-09-19T04:17:34;17.27;;;10.08;;
20861;SDS011;10591;52.532;13.348;2022-09-19T04:20:06;12.93;;;7.70;;
20861;SDS011;10591;52.532;13.348;2022-09-19T04:22:38;12.23;;;7.60;;
20861;SDS011;10591;52.532;13.348;2022-09-19T04:25:09;9.53;;;6.53;;
20861;SDS011;10591;52.532;13.348;2022-09-19T04:27:41;14.77;;;8.63;;
20861;SDS011;10591;52.532;13.348;2022-09-19T04:30:13;13.35;;;8.08;;
20861;SDS011;10591;52.532;13.348;2022-09-19T04:32:44;12.73;;;7.70;;
20861;SDS011;10591;52.532;13.348;2022-09-19T04:35:14;12.57;;;7.60;;
20861;SDS011;10591;52.532;13.348;2022-09-19T04:37:45;8.35;;;7.00;;
20861;SDS011;10591;52.532;13.348;2022-09-19T04:40:15;9.93;;;6.58;;
20861;SDS011;10591;52.532;13.348;2022-09-19T04:42:47;11.80;;;7.50;;
20861;SDS011;10591;52.532;13.348;2022-09-19T04:45:18;11.40;;;7.33;;
20861;SDS011;10591;52.532;13.348;2022-09-19T04:47:49;14.93;;;7.87;;
20861;SDS011;10591;52.532;13.348;2022-09-19T04:50:21;11.90;;;8.00;;
20861;SDS011;10591;52.532;13.348;2022-09-19T04:52:52;11.87;;;7.50;;
20861;SDS011;10591;52.532;13.348;2022-09-19T04:55:22;11.40;;;7.15;;
20861;SDS011;10591;52.532;13.348;2022-09-19T04:57:54;11.13;;;6.90;;
20861;SDS011;10591;52.532;13.348;2022-09-19T05:00:25;13.73;;;11.50;;
20861;SDS011;10591;52.532;13.348;2022-09-19T05:03:15;9.33;;;6.80;;
20861;SDS011;10591;52.532;13.348;2022-09-19T05:05:42;8.33;;;6.03;;
20861;SDS011;10591;52.532;13.348;2022-09-19T05:08:16;9.60;;;5.90;;
20861;SDS011;10591;52.532;13.348;2022-09-19T05:10:51;9.38;;;6.03;;
20861;SDS011;10591;52.532;13.348;2022-09-19T05:13:23;7.10;;;5.70;;
20861;SDS011;10591;52.532;13.348;2022-09-19T05:15:57;9.25;;;6.37;;
20861;SDS011;10591;52.532;13.348;2022-09-19T05:18:29;7.33;;;5.65;;
20861;SDS011;10591;52.532;13.348;2022-09-19T05:21:06;8.80;;;5.65;;
20861;SDS011;10591;52.532;13.348;2022-09-19T05:23:38;7.17;;;6.07;;
20861;SDS011;10591;52.532;13.348;2022-09-19T05:26:11;9.40;;;6.20;;
20861;SDS011;10591;52.532;13.348;2022-09-19T05:28:46;11.03;;;6.37;;
20861;SDS011;10591;52.532;13.348;2022-09-19T05:31:16;9.13;;;6.00;;
20861;SDS011;10591;52.532;13.348;2022-09-19T05:33:48;9.90;;;6.27;;
20861;SDS011;10591;52.532;13.348;2022-09-19T05:36:18;10.20;;;6.60;;
20861;SDS011;10591;52.532;13.348;2022-09-19T05:38:50;8.83;;;5.80;;
20861;SDS011;10591;52.532;13.348;2022-09-19T05:41:21;9.18;;;6.37;;
20861;SDS011;10591;52.532;13.348;2022-09-19T05:43:51;8.13;;;5.70;;
20861;SDS011;10591;52.532;13.348;2022-09-19T05:46:21;8.70;;;5.67;;
20861;SDS011;10591;52.532;13.348;2022-09-19T05:48:53;6.03;;;5.40;;
20861;SDS011;10591;52.532;13.348;2022-09-19T05:51:24;6.87;;;5.50;;
20861;SDS011;10591;52.532;13.348;2022-09-19T05:53:55;7.60;;;5.12;;
20861;SDS011;10591;52.532;13.348;2022-09-19T05:56:25;8.08;;;5.95;;
20861;SDS011;10591;52.532;13.348;2022-09-19T05:58:55;8.75;;;5.58;;
20861;SDS011;10591;52.532;13.348;2022-09-19T06:01:26;10.85;;;6.30;;
20861;SDS011;10591;52.532;13.348;2022-09-19T06:03:56;7.55;;;5.50;;
20861;SDS011;10591;52.532;13.348;2022-09-19T06:06:28;7.33;;;5.13;;
20861;SDS011;10591;52.532;13.348;2022-09-19T06:08:59;5.23;;;4.73;;
20861;SDS011;10591;52.532;13.348;2022-09-19T06:11:30;7.93;;;4.53;;
20861;SDS011;10591;52.532;13.348;2022-09-19T06:14:01;7.53;;;4.58;;
20861;SDS011;10591;52.532;13.348;2022-09-19T06:16:44;4.40;;;4.00;;
20861;SDS011;10591;52.532;13.348;2022-09-19T06:19:14;6.33;;;4.20;;
20861;SDS011;10591;52.532;13.348;2022-09-19T06:21:45;6.60;;;4.65;;
20861;SDS011;10591;52.532;13.348;2022-09-19T06:24:15;6.03;;;4.50;;
20861;SDS011;10591;52.532;13.348;2022-09-19T06:26:45;9.63;;;7.10;;
20861;SDS011;10591;52.532;13.348;2022-09-19T06:29:16;16.03;;;12.23;;
20861;SDS011;10591;52.532;13.348;2022-09-19T06:31:46;4.15;;;3.75;;
20861;SDS011;10591;52.532;13.348;2022-09-19T06:34:17;6.25;;;3.95;;
20861;SDS011;10591;52.532;13.348;2022-09-19T06:36:48;4.42;;;3.60;;
20861;SDS011;10591;52.532;13.348;2022-09-19T06:39:19;5.80;;;4.00;;
20861;SDS011;10591;52.532;13.348;2022-09-19T06:41:50;4.62;;;3.72;;
20861;SDS011;10591;52.532;13.348;2022-09-19T06:44:20;6.00;;;3.60;;
20861;SDS011;10591;52.532;13.348;2022-09-19T06:46:51;5.80;;;3.33;;
20861;SDS011;10591;52.532;13.348;2022-09-19T06:49:22;8.53;;;3.87;;
20861;SDS011;10591;52.532;13.348;2022-09-19T06:51:52;4.67;;;3.42;;
20861;SDS011;10591;52.532;13.348;2022-09-19T06:54:23;5.23;;;3.43;;
20861;SDS011;10591;52.532;13.348;2022-09-19T06:56:53;4.85;;;3.35;;
20861;SDS011;10591;52.532;13.348;2022-09-19T06:59:24;5.47;;;3.30;;
20861;SDS011;10591;52.532;13.348;2022-09-19T07:01:54;4.20;;;3.65;;
20861;SDS011;10591;52.532;13.348;2022-09-19T07:04:25;5.35;;;3.20;;
20861;SDS011;10591;52.532;13.348;2022-09-19T07:06:55;30.82;;;23.15;;
20861;SDS011;10591;52.532;13.348;2022-09-19T07:09:26;8.40;;;7.53;;
20861;SDS011;10591;52.532;13.348;2022-09-19T07:11:57;4.35;;;3.10;;
20861;SDS011;10591;52.532;13.348;2022-09-19T07:14:29;3.98;;;2.85;;
20861;SDS011;10591;52.532;13.348;2022-09-19T07:16:59;4.80;;;3.15;;
20861;SDS011;10591;52.532;13.348;2022-09-19T07:19:30;3.47;;;3.10;;
20861;SDS011;10591;52.532;13.348;2022-09-19T07:22:00;2.90;;;2.60;;
20861;SDS011;10591;52.532;13.348;2022-09-19T07:24:31;2.83;;;2.63;;
20861;SDS011;10591;52.532;13.348;2022-09-19T07:27:03;3.60;;;3.00;;
20861;SDS011;10591;52.532;13.348;2022-09-19T07:29:33;4.30;;;3.20;;
20861;SDS011;10591;52.532;13.348;2022-09-19T07:32:04;3.70;;;2.70;;
20861;SDS011;10591;52.532;13.348;2022-09-19T07:34:34;3.52;;;2.72;;
20861;SDS011;10591;52.532;13.348;2022-09-19T07:37:05;5.97;;;2.90;;
20861;SDS011;10591;52.532;13.348;2022-09-19T07:39:35;2.72;;;2.45;;
20861;SDS011;10591;52.532;13.348;2022-09-19T07:42:07;4.05;;;2.80;;
20861;SDS011;10591;52.532;13.348;2022-09-19T07:44:38;4.53;;;2.72;;
20861;SDS011;10591;52.532;13.348;2022-09-19T07:47:10;2.75;;;2.37;;
20861;SDS011;10591;52.532;13.348;2022-09-19T07:49:58;3.65;;;2.60;;
20861;SDS011;10591;52.532;13.348;2022-09-19T07:52:28;4.03;;;2.67;;
20861;SDS011;10591;52.532;13.348;2022-09-19T07:54:59;4.67;;;2.70;;
20861;SDS011;10591;52.532;13.348;2022-09-19T07:57:29;4.55;;;2.80;;
20861;SDS011;10591;52.532;13.348;2022-09-19T08:00:00;3.75;;;2.50;;
20861;SDS011;10591;52.532;13.348;2022-09-19T08:02:32;4.60;;;2.65;;
20861;SDS011;10591;52.532;13.348;2022-09-19T08:05:03;4.00;;;3.05;;
20861;SDS011;10591;52.532;13.348;2022-09-19T08:07:34;3.35;;;3.05;;
20861;SDS011;10591;52.532;13.348;2022-09-19T08:10:05;2.35;;;2.22;;
20861;SDS011;10591;52.532;13.348;2022-09-19T08:12:36;6.85;;;2.30;;
20861;SDS011;10591;52.532;13.348;2022-09-19T08:15:09;2.50;;;2.00;;
20861;SDS011;10591;52.532;13.348;2022-09-19T08:17:42;2.47;;;2.27;;
20861;SDS011;10591;52.532;13.348;2022-09-19T08:20:32;5.35;;;3.10;;
20861;SDS011;10591;52.532;13.348;2022-09-19T08:23:02;3.37;;;2.08;;
20861;SDS011;10591;52.532;13.348;2022-09-19T08:25:35;3.83;;;1.98;;
20861;SDS011;10591;52.532;13.348;2022-09-19T08:28:12;1.90;;;1.75;;
20861;SDS011;10591;52.532;13.348;2022-09-19T08:30:43;3.08;;;1.65;;
20861;SDS011;10591;52.532;13.348;2022-09-19T08:33:14;2.55;;;1.70;;
20861;SDS011;10591;52.532;13.348;2022-09-19T08:35:45;2.42;;;1.80;;
20861;SDS011;10591;52.532;13.348;2022-09-19T08:38:16;2.02;;;1.80;;
20861;SDS011;10591;52.532;13.348;2022-09-19T08:40:50;2.15;;;1.95;;
20861;SDS011;10591;52.532;13.348;2022-09-19T08:43:34;2.58;;;1.90;;
20861;SDS011;10591;52.532;13.348;2022-09-19T08:46:20;2.95;;;1.70;;
20861;SDS011;10591;52.532;13.348;2022-09-19T08:54:18;2.50;;;1.90;;
20861;SDS011;10591;52.532;13.348;2022-09-19T08:56:50;2.08;;;1.45;;
20861;SDS011;10591;52.532;13.348;2022-09-19T08:59:22;11.22;;;7.20;;
20861;SDS011;10591;52.532;13.348;2022-09-19T09:01:57;3.70;;;1.92;;
20861;SDS011;10591;52.532;13.348;2022-09-19T09:04:32;2.00;;;1.85;;
20861;SDS011;10591;52.532;13.348;2022-09-19T09:12:57;2.75;;;1.77;;
20861;SDS011;10591;52.532;13.348;2022-09-19T09:15:37;1.98;;;1.50;;
20861;SDS011;10591;52.532;13.348;2022-09-19T09:21:26;2.83;;;1.70;;
20861;SDS011;10591;52.532;13.348;2022-09-19T09:24:02;3.08;;;1.50;;
20861;SDS011;10591;52.532;13.348;2022-09-19T09:26:38;1.47;;;1.37;;
20861;SDS011;10591;52.532;13.348;2022-09-19T09:29:32;1.42;;;1.10;;
20861;SDS011;10591;52.532;13.348;2022-09-19T09:32:17;1.57;;;1.32;;
20861;SDS011;10591;52.532;13.348;2022-09-19T09:35:09;1.27;;;1.17;;
20861;SDS011;10591;52.532;13.348;2022-09-19T09:37:43;1.70;;;1.50;;
20861;SDS011;10591;52.532;13.348;2022-09-19T09:40:43;6.37;;;5.17;;
20861;SDS011;10591;52.532;13.348;2022-09-19T09:49:16;1.62;;;1.35;;
20861;SDS011;10591;52.532;13.348;2022-09-19T10:00:26;3.58;;;1.42;;
20861;SDS011;10591;52.532;13.348;2022-09-19T10:03:29;2.60;;;1.55;;
20861;SDS011;10591;52.532;13.348;2022-09-19T10:06:12;3.33;;;1.35;;
20861;SDS011;10591;52.532;13.348;2022-09-19T10:09:05;2.22;;;1.00;;
20861;SDS011;10591;52.532;13.348;2022-09-19T10:11:53;3.33;;;1.25;;
20861;SDS011;10591;52.532;13.348;2022-09-19T10:14:29;1.07;;;0.85;;
20861;SDS011;10591;52.532;13.348;2022-09-19T10:17:01;2.05;;;1.00;;
20861;SDS011;10591;52.532;13.348;2022-09-19T10:19:42;2.25;;;0.90;;
20861;SDS011;10591;52.532;13.348;2022-09-19T10:22:17;4.35;;;1.35;;
20861;SDS011;10591;52.532;13.348;2022-09-19T10:24:48;3.00;;;1.47;;
20861;SDS011;10591;52.532;13.348;2022-09-19T10:27:25;4.05;;;1.20;;
20861;SDS011;10591;52.532;13.348;2022-09-19T10:32:48;3.10;;;1.80;;
20861;SDS011;10591;52.532;13.348;2022-09-19T10:35:35;2.62;;;2.12;;
20861;SDS011;10591;52.532;13.348;2022-09-19T10:43:27;1.67;;;1.00;;
20861;SDS011;10591;52.532;13.348;2022-09-19T10:46:04;4.28;;;1.80;;
20861;SDS011;10591;52.532;13.348;2022-09-19T10:48:37;3.47;;;1.43;;
20861;SDS011;10591;52.532;13.348;2022-09-19T10:51:10;2.20;;;1.07;;
20861;SDS011;10591;52.532;13.348;2022-09-19T10:53:46;1.47;;;0.90;;
20861;SDS011;10591;52.532;13.348;2022-09-19T10:56:20;1.65;;;1.15;;
20861;SDS011;10591;52.532;13.348;2022-09-19T11:05:05;2.90;;;1.45;;
20861;SDS011;10591;52.532;13.348;2022-09-19T11:07:27;3.70;;;1.37;;
20861;SDS011;10591;52.532;13.348;2022-09-19T11:10:01;3.17;;;1.52;;
20861;SDS011;10591;52.532;13.348;2022-09-19T11:12:34;1.55;;;1.30;;
20861;SDS011;10591;52.532;13.348;2022-09-19T11:15:07;1.92;;;1.40;;
20861;SDS011;10591;52.532;13.348;2022-09-19T11:17:52;2.12;;;1.77;;
20861;SDS011;10591;52.532;13.348;2022-09-19T11:23:30;1.95;;;1.60;;
20861;SDS011;10591;52.532;13.348;2022-09-19T11:31:57;2.30;;;1.77;;
20861;SDS011;10591;52.532;13.348;2022-09-19T11:37:55;1.80;;;1.70;;
20861;SDS011;10591;52.532;13.348;2022-09-19T11:52:23;2.02;;;1.10;;
20861;SDS011;10591;52.532;13.348;2022-09-19T11:54:57;1.72;;;1.17;;
20861;SDS011;10591;52.532;13.348;2022-09-19T11:57:41;2.92;;;1.15;;
20861;SDS011;10591;52.532;13.348;2022-09-19T12:00:15;3.85;;;1.40;;
20861;SDS011;10591;52.532;13.348;2022-09-19T12:02:49;3.05;;;1.32;;
20861;SDS011;10591;52.532;13.348;2022-09-19T12:16:02;4.12;;;1.60;;
20861;SDS011;10591;52.532;13.348;2022-09-19T12:18:43;3.72;;;1.30;;
20861;SDS011;10591;52.532;13.348;2022-09-19T12:21:39;2.25;;;1.15;;
20861;SDS011;10591;52.532;13.348;2022-09-19T12:24:15;1.47;;;1.22;;
20861;SDS011;10591;52.532;13.348;2022-09-19T12:35:55;1.57;;;1.10;;
20861;SDS011;10591;52.532;13.348;2022-09-19T12:38:46;1.67;;;1.15;;
20861;SDS011;10591;52.532;13.348;2022-09-19T12:46:57;2.62;;;1.30;;
20861;SDS011;10591;52.532;13.348;2022-09-19T12:52:30;3.02;;;2.52;;
20861;SDS011;10591;52.532;13.348;2022-09-19T12:55:08;2.33;;;1.70;;
20861;SDS011;10591;52.532;13.348;2022-09-19T12:58:02;1.47;;;1.30;;
20861;SDS011;10591;52.532;13.348;2022-09-19T13:00:35;1.85;;;1.55;;
20861;SDS011;10591;52.532;13.348;2022-09-19T13:03:14;5.50;;;1.40;;
20861;SDS011;10591;52.532;13.348;2022-09-19T13:05:48;2.15;;;1.50;;
20861;SDS011;10591;52.532;13.348;2022-09-19T13:08:25;1.60;;;1.50;;
20861;SDS011;10591;52.532;13.348;2022-09-19T13:10:57;2.55;;;1.77;;
20861;SDS011;10591;52.532;13.348;2022-09-19T13:13:33;3.52;;;2.12;;
20861;SDS011;10591;52.532;13.348;2022-09-19T13:16:11;2.85;;;1.72;;
20861;SDS011;10591;52.532;13.348;2022-09-19T13:18:51;3.42;;;1.65;;
20861;SDS011;10591;52.532;13.348;2022-09-19T13:21:38;2.08;;;1.65;;
20861;SDS011;10591;52.532;13.348;2022-09-19T13:27:16;1.95;;;1.70;;
20861;SDS011;10591;52.532;13.348;2022-09-19T13:29:48;3.40;;;1.95;;
20861;SDS011;10591;52.532;13.348;2022-09-19T13:32:31;2.90;;;1.82;;
20861;SDS011;10591;52.532;13.348;2022-09-19T13:43:11;5.95;;;3.98;;
20861;SDS011;10591;52.532;13.348;2022-09-19T13:45:59;11.03;;;8.73;;
20861;SDS011;10591;52.532;13.348;2022-09-19T13:48:50;5.20;;;2.55;;
20861;SDS011;10591;52.532;13.348;2022-09-19T13:59:37;1.90;;;1.80;;
20861;SDS011;10591;52.532;13.348;2022-09-19T14:21:58;5.60;;;4.05;;
20861;SDS011;10591;52.532;13.348;2022-09-19T14:24:05;2.83;;;2.50;;
20861;SDS011;10591;52.532;13.348;2022-09-19T14:35:13;2.60;;;1.45;;
20861;SDS011;10591;52.532;13.348;2022-09-19T14:37:49;2.72;;;1.70;;
20861;SDS011;10591;52.532;13.348;2022-09-19T14:40:32;2.37;;;1.70;;
20861;SDS011;10591;52.532;13.348;2022-09-19T14:43:27;1.55;;;1.40;;
20861;SDS011;10591;52.532;13.348;2022-09-19T14:46:20;1.40;;;1.30;;
20861;SDS011;10591;52.532;13.348;2022-09-19T14:52:03;1.95;;;1.80;;
20861;SDS011;10591;52.532;13.348;2022-09-19T14:54:39;2.72;;;1.70;;
20861;SDS011;10591;52.532;13.348;2022-09-19T14:57:14;2.55;;;1.50;;
20861;SDS011;10591;52.532;13.348;2022-09-19T14:59:49;2.12;;;1.40;;
20861;SDS011;10591;52.532;13.348;2022-09-19T15:02:22;2.40;;;1.40;;
20861;SDS011;10591;52.532;13.348;2022-09-19T15:05:03;1.75;;;1.50;;
20861;SDS011;10591;52.532;13.348;2022-09-19T15:07:32;3.05;;;2.62;;
20861;SDS011;10591;52.532;13.348;2022-09-19T15:10:18;7.00;;;3.80;;
20861;SDS011;10591;52.532;13.348;2022-09-19T15:12:52;2.35;;;1.70;;
20861;SDS011;10591;52.532;13.348;2022-09-19T15:15:24;1.72;;;1.42;;
20861;SDS011;10591;52.532;13.348;2022-09-19T15:17:57;2.80;;;1.50;;
20861;SDS011;10591;52.532;13.348;2022-09-19T15:20:28;1.50;;;1.40;;
20861;SDS011;10591;52.532;13.348;2022-09-19T15:23:01;1.30;;;1.20;;
20861;SDS011;10591;52.532;13.348;2022-09-19T15:25:35;1.60;;;1.40;;
20861;SDS011;10591;52.532;13.348;2022-09-19T15:28:28;1.73;;;1.60;;
20861;SDS011;10591;52.532;13.348;2022-09-19T15:30:57;2.87;;;2.27;;
20861;SDS011;10591;52.532;13.348;2022-09-19T15:33:27;2.00;;;1.40;;
20861;SDS011;10591;52.532;13.348;2022-09-19T15:36:00;3.10;;;1.67;;
20861;SDS011;10591;52.532;13.348;2022-09-19T15:38:32;1.50;;;1.40;;
20861;SDS011;10591;52.532;13.348;2022-09-19T15:41:05;2.72;;;1.47;;
20861;SDS011;10591;52.532;13.348;2022-09-19T15:43:43;2.07;;;1.70;;
20861;SDS011;10591;52.532;13.348;2022-09-19T15:49:05;2.10;;;1.60;;
20861;SDS011;10591;52.532;13.348;2022-09-19T15:51:39;2.52;;;2.00;;
20861;SDS011;10591;52.532;13.348;2022-09-19T15:54:16;2.30;;;1.95;;
20861;SDS011;10591;52.532;13.348;2022-09-19T15:56:50;2.90;;;2.20;;
20861;SDS011;10591;52.532;13.348;2022-09-19T15:59:21;2.45;;;2.10;;
20861;SDS011;10591;52.532;13.348;2022-09-19T16:01:56;1.72;;;1.62;;
20861;SDS011;10591;52.532;13.348;2022-09-19T16:04:30;2.22;;;2.02;;
20861;SDS011;10591;52.532;13.348;2022-09-19T16:07:00;2.60;;;1.82;;
20861;SDS011;10591;52.532;13.348;2022-09-19T16:10:08;4.08;;;1.70;;
20861;SDS011;10591;52.532;13.348;2022-09-19T16:12:45;2.85;;;1.98;;
20861;SDS011;10591;52.532;13.348;2022-09-19T16:23:09;2.95;;;1.67;;
20861;SDS011;10591;52.532;13.348;2022-09-19T16:25:52;2.22;;;1.95;;
20861;SDS011;10591;52.532;13.348;2022-09-19T16:28:35;2.30;;;2.00;;
20861;SDS011;10591;52.532;13.348;2022-09-19T16:33:47;2.12;;;1.92;;
20861;SDS011;10591;52.532;13.348;2022-09-19T16:36:22;2.72;;;1.72;;
20861;SDS011;10591;52.532;13.348;2022-09-19T16:41:34;3.98;;;2.02;;
20861;SDS011;10591;52.532;13.348;2022-09-19T16:46:57;5.97;;;3.70;;
20861;SDS011;10591;52.532;13.348;2022-09-19T16:49:29;2.27;;;1.70;;
20861;SDS011;10591;52.532;13.348;2022-09-19T16:51:59;7.93;;;6.30;;
20861;SDS011;10591;52.532;13.348;2022-09-19T16:54:33;9.75;;;7.45;;
20861;SDS011;10591;52.532;13.348;2022-09-19T16:57:04;3.87;;;2.10;;
20861;SDS011;10591;52.532;13.348;2022-09-19T16:59:34;2.80;;;1.90;;
20861;SDS011;10591;52.532;13.348;2022-09-19T17:02:10;1.40;;;1.30;;
20861;SDS011;10591;52.532;13.348;2022-09-19T17:04:55;3.98;;;1.90;;
20861;SDS011;10591;52.532;13.348;2022-09-19T17:07:58;1.70;;;1.50;;
20861;SDS011;10591;52.532;13.348;2022-09-19T17:10:30;3.40;;;1.90;;
20861;SDS011;10591;52.532;13.348;2022-09-19T17:13:02;1.80;;;1.60;;
20861;SDS011;10591;52.532;13.348;2022-09-19T17:18:15;2.30;;;2.10;;
20861;SDS011;10591;52.532;13.348;2022-09-19T17:20:46;3.67;;;1.82;;
20861;SDS011;10591;52.532;13.348;2022-09-19T17:23:17;3.02;;;2.37;;
20861;SDS011;10591;52.532;13.348;2022-09-19T17:25:48;2.33;;;1.90;;
20861;SDS011;10591;52.532;13.348;2022-09-19T17:28:22;3.22;;;2.35;;
20861;SDS011;10591;52.532;13.348;2022-09-19T17:30:57;3.43;;;3.00;;
20861;SDS011;10591;52.532;13.348;2022-09-19T17:33:29;2.55;;;1.80;;
20861;SDS011;10591;52.532;13.348;2022-09-19T17:36:02;3.50;;;3.20;;
20861;SDS011;10591;52.532;13.348;2022-09-19T17:38:32;10.53;;;7.95;;
20861;SDS011;10591;52.532;13.348;2022-09-19T17:41:02;11.47;;;6.13;;
20861;SDS011;10591;52.532;13.348;2022-09-19T17:43:34;6.93;;;4.80;;
20861;SDS011;10591;52.532;13.348;2022-09-19T17:46:05;7.60;;;5.17;;
20861;SDS011;10591;52.532;13.348;2022-09-19T17:48:37;3.67;;;2.22;;
20861;SDS011;10591;52.532;13.348;2022-09-19T17:51:08;10.93;;;5.15;;
20861;SDS011;10591;52.532;13.348;2022-09-19T17:53:44;18.55;;;9.60;;
20861;SDS011;10591;52.532;13.348;2022-09-19T17:56:16;4.72;;;3.08;;
20861;SDS011;10591;52.532;13.348;2022-09-19T17:58:52;4.45;;;2.77;;
20861;SDS011;10591;52.532;13.348;2022-09-19T18:01:25;4.40;;;2.90;;
20861;SDS011;10591;52.532;13.348;2022-09-19T18:04:15;4.80;;;2.70;;
20861;SDS011;10591;52.532;13.348;2022-09-19T18:06:46;3.52;;;3.00;;
20861;SDS011;10591;52.532;13.348;2022-09-19T18:09:16;5.37;;;3.03;;
20861;SDS011;10591;52.532;13.348;2022-09-19T18:11:48;4.70;;;3.25;;
20861;SDS011;10591;52.532;13.348;2022-09-19T18:14:21;4.30;;;2.95;;
20861;SDS011;10591;52.532;13.348;2022-09-19T18:16:51;3.62;;;2.50;;
20861;SDS011;10591;52.532;13.348;2022-09-19T18:19:23;3.13;;;2.70;;
20861;SDS011;10591;52.532;13.348;2022-09-19T18:21:54;2.60;;;2.40;;
20861;SDS011;10591;52.532;13.348;2022-09-19T18:24:24;3.58;;;2.30;;
20861;SDS011;10591;52.532;13.348;2022-09-19T18:26:54;4.03;;;2.50;;
20861;SDS011;10591;52.532;13.348;2022-09-19T18:29:25;5.05;;;2.85;;
20861;SDS011;10591;52.532;13.348;2022-09-19T18:31:57;4.33;;;2.40;;
20861;SDS011;10591;52.532;13.348;2022-09-19T18:34:29;4.83;;;2.30;;